createdAt,value
2023-02-13T00:00:52.642Z,58.04
2023-02-13T00:01:52.647Z,58.04
2023-02-13T00:02:52.679Z,58.14
2023-02-13T00:03:52.721Z,57.76
2023-02-13T00:04:52.673Z,57.85
2023-02-13T00:05:52.680Z,58.04
2023-02-13T00:06:52.706Z,58.04
2023-02-13T00:07:52.706Z,58.23
2023-02-13T00:08:52.705Z,58.42
2023-02-13T00:09:52.710Z,58.14
2023-02-13T00:10:52.723Z,59.08
2023-02-13T00:11:52.726Z,58.51
2023-02-13T00:12:52.747Z,58.33
2023-02-13T00:13:52.743Z,57.76
2023-02-13T00:14:52.803Z,57.38
2023-02-13T00:15:52.778Z,57.66
2023-02-13T00:16:52.772Z,57.38
2023-02-13T00:17:52.785Z,57.47
2023-02-13T00:18:52.822Z,57.85
2023-02-13T00:19:52.794Z,57.95
2023-02-13T00:20:52.805Z,57.47
2023-02-13T00:21:52.808Z,57.47
2023-02-13T00:22:52.829Z,57.38
2023-02-13T00:23:52.832Z,56.81
2023-02-13T00:24:52.842Z,57.57
2023-02-13T00:25:52.841Z,57.57
2023-02-13T00:26:52.854Z,57.85
2023-02-13T00:27:52.861Z,57.09
2023-02-13T00:28:52.868Z,56.81
2023-02-13T00:29:52.875Z,57.19
2023-02-13T00:30:53.094Z,57.57
2023-02-13T00:31:53.046Z,57.76
2023-02-13T00:32:52.899Z,57.57
2023-02-13T00:33:52.903Z,57.57
2023-02-13T00:34:52.948Z,57.76
2023-02-13T00:35:52.917Z,57.19
2023-02-13T00:36:52.930Z,56.99
2023-02-13T00:37:52.935Z,57.57
2023-02-13T00:38:52.948Z,57.66
2023-02-13T00:39:52.957Z,57.76
2023-02-13T00:40:52.963Z,57.57
2023-02-13T00:41:52.969Z,57.76
2023-02-13T00:42:52.986Z,57.57
2023-02-13T00:43:52.989Z,58.04
2023-02-13T00:44:52.994Z,57.47
2023-02-13T00:45:52.995Z,58.04
2023-02-13T00:46:53.010Z,57.82
2023-02-13T00:47:53.014Z,57.95
2023-02-13T00:48:53.027Z,57.95
2023-02-13T00:49:53.030Z,58.04
2023-02-13T00:50:53.063Z,58.39
2023-02-13T00:51:53.044Z,58.39
2023-02-13T00:52:53.086Z,58.01
2023-02-13T00:53:53.061Z,58.11
2023-02-13T00:54:53.077Z,58.39
2023-02-13T00:55:53.077Z,58.11
2023-02-13T00:56:53.085Z,58.39
2023-02-13T00:57:53.092Z,58.77
2023-02-13T00:58:53.108Z,58.39
2023-02-13T00:59:53.211Z,59.44
2023-02-13T01:00:53.120Z,58.99
2023-02-13T01:01:53.194Z,58.67
2023-02-13T01:02:53.137Z,58.77
2023-02-13T01:03:53.193Z,58.48
2023-02-13T01:04:53.154Z,58.86
2023-02-13T01:05:53.162Z,58.86
2023-02-13T01:06:53.195Z,58.86
2023-02-13T01:07:53.178Z,58.86
2023-02-13T01:08:53.186Z,58.67
2023-02-13T01:09:53.193Z,58.96
2023-02-13T01:10:53.205Z,58.77
2023-02-13T01:11:53.223Z,58.58
2023-02-13T01:12:53.218Z,58.11
2023-02-13T01:13:53.234Z,58.11
2023-02-13T01:14:53.237Z,58.20
2023-02-13T01:15:53.360Z,58.39
2023-02-13T01:16:53.255Z,57.82
2023-02-13T01:17:53.260Z,57.92
2023-02-13T01:18:53.271Z,57.92
2023-02-13T01:19:53.278Z,57.54
2023-02-13T01:20:53.288Z,57.44
2023-02-13T01:21:53.299Z,57.92
2023-02-13T01:22:53.332Z,57.73
2023-02-13T01:23:53.312Z,58.01
2023-02-13T01:24:53.319Z,58.11
2023-02-13T01:25:53.322Z,57.64
2023-02-13T01:26:53.330Z,57.82
2023-02-13T01:27:53.335Z,57.82
2023-02-13T01:28:53.354Z,58.01
2023-02-13T01:29:53.358Z,57.73
2023-02-13T01:30:53.393Z,57.92
2023-02-13T01:31:53.453Z,57.92
2023-02-13T01:32:53.395Z,57.54
2023-02-13T01:33:53.385Z,57.73
2023-02-13T01:34:53.396Z,57.35
2023-02-13T01:35:53.402Z,57.16
2023-02-13T01:36:53.408Z,57.73
2023-02-13T01:37:53.417Z,57.44
2023-02-13T01:38:53.445Z,58.20
2023-02-13T01:39:53.426Z,58.11
2023-02-13T01:40:53.438Z,57.82
2023-02-13T01:41:53.445Z,56.78
2023-02-13T01:42:53.453Z,56.49
2023-02-13T01:43:53.457Z,56.40
2023-02-13T01:44:53.472Z,56.68
2023-02-13T01:45:53.476Z,56.78
2023-02-13T01:46:53.540Z,57.73
2023-02-13T01:47:53.489Z,57.54
2023-02-13T01:48:53.496Z,57.64
2023-02-13T01:49:53.502Z,58.01
2023-02-13T01:50:53.517Z,57.73
2023-02-13T01:51:53.518Z,57.54
2023-02-13T01:52:53.531Z,57.25
2023-02-13T01:53:53.537Z,56.78
2023-02-13T01:54:53.567Z,57.44
2023-02-13T01:55:53.549Z,57.73
2023-02-13T01:56:53.561Z,57.35
2023-02-13T01:57:53.570Z,57.73
2023-02-13T01:58:53.579Z,57.54
2023-02-13T01:59:53.594Z,57.54
2023-02-13T02:00:53.611Z,57.82
2023-02-13T02:01:53.786Z,56.97
2023-02-13T02:02:53.609Z,57.25
2023-02-13T02:03:53.613Z,56.68
2023-02-13T02:04:53.620Z,56.87
2023-02-13T02:05:53.630Z,56.68
2023-02-13T02:06:53.637Z,56.59
2023-02-13T02:07:53.650Z,56.68
2023-02-13T02:08:53.657Z,56.68
2023-02-13T02:09:53.658Z,56.97
2023-02-13T02:10:53.733Z,56.87
2023-02-13T02:11:53.684Z,57.16
2023-02-13T02:12:53.688Z,57.06
2023-02-13T02:13:53.695Z,56.78
2023-02-13T02:14:53.712Z,56.78
2023-02-13T02:15:53.731Z,56.68
2023-02-13T02:16:53.734Z,56.68
2023-02-13T02:17:53.729Z,57.06
2023-02-13T02:18:53.738Z,57.25
2023-02-13T02:19:53.752Z,56.78
2023-02-13T02:20:53.768Z,56.59
2023-02-13T02:21:53.754Z,56.59
2023-02-13T02:22:53.774Z,56.68
2023-02-13T02:23:53.775Z,56.49
2023-02-13T02:24:53.782Z,57.25
2023-02-13T02:25:53.794Z,56.87
2023-02-13T02:26:53.827Z,56.78
2023-02-13T02:27:53.806Z,56.59
2023-02-13T02:28:53.817Z,56.68
2023-02-13T02:29:53.820Z,56.78
2023-02-13T02:30:53.860Z,56.97
2023-02-13T02:31:53.893Z,56.78
2023-02-13T02:32:53.850Z,57.06
2023-02-13T02:33:53.852Z,56.87
2023-02-13T02:34:53.865Z,56.78
2023-02-13T02:35:53.875Z,56.59
2023-02-13T02:36:53.879Z,56.21
2023-02-13T02:37:53.882Z,55.74
2023-02-13T02:38:53.909Z,56.02
2023-02-13T02:39:53.908Z,55.74
2023-02-13T02:40:53.943Z,54.82
2023-02-13T02:41:53.917Z,54.34
2023-02-13T02:42:53.952Z,53.96
2023-02-13T02:43:53.930Z,54.06
2023-02-13T02:44:53.940Z,54.15
2023-02-13T02:45:53.946Z,54.25
2023-02-13T02:46:54.047Z,54.82
2023-02-13T02:47:53.960Z,54.72
2023-02-13T02:48:53.969Z,55.19
2023-02-13T02:49:53.978Z,55.36
2023-02-13T02:50:53.996Z,54.88
2023-02-13T02:51:53.995Z,54.13
2023-02-13T02:52:54.004Z,54.44
2023-02-13T02:53:54.010Z,54.13
2023-02-13T02:54:54.015Z,54.44
2023-02-13T02:55:54.027Z,54.44
2023-02-13T02:56:54.033Z,53.84
2023-02-13T02:57:54.035Z,54.15
2023-02-13T02:58:54.069Z,54.41
2023-02-13T02:59:54.059Z,55.00
2023-02-13T03:00:54.100Z,55.17
2023-02-13T03:01:54.065Z,55.55
2023-02-13T03:02:54.075Z,55.36
2023-02-13T03:03:54.117Z,55.07
2023-02-13T03:04:54.092Z,54.98
2023-02-13T03:05:54.093Z,54.69
2023-02-13T03:06:54.105Z,54.13
2023-02-13T03:07:54.111Z,53.37
2023-02-13T03:08:54.121Z,53.37
2023-02-13T03:09:54.124Z,53.46
2023-02-13T03:10:54.346Z,54.13
2023-02-13T03:11:54.144Z,54.41
2023-02-13T03:12:54.158Z,54.13
2023-02-13T03:13:54.164Z,54.79
2023-02-13T03:14:54.190Z,54.22
2023-02-13T03:15:54.177Z,53.94
2023-02-13T03:16:54.193Z,53.75
2023-02-13T03:17:54.185Z,53.94
2023-02-13T03:18:54.201Z,54.03
2023-02-13T03:19:54.205Z,53.94
2023-02-13T03:20:54.215Z,54.13
2023-02-13T03:21:54.218Z,54.32
2023-02-13T03:22:54.239Z,54.41
2023-02-13T03:23:54.236Z,54.79
2023-02-13T03:24:54.245Z,54.79
2023-02-13T03:25:54.252Z,54.32
2023-02-13T03:26:54.259Z,54.22
2023-02-13T03:27:54.272Z,54.22
2023-02-13T03:28:54.276Z,54.41
2023-02-13T03:29:54.290Z,54.98
2023-02-13T03:30:54.363Z,54.69
2023-02-13T03:31:54.430Z,54.79
2023-02-13T03:32:54.312Z,54.98
2023-02-13T03:33:54.331Z,55.64
2023-02-13T03:34:54.324Z,56.12
2023-02-13T03:35:54.327Z,56.30
2023-02-13T03:36:54.340Z,56.12
2023-02-13T03:37:54.344Z,56.12
2023-02-13T03:38:54.357Z,55.55
2023-02-13T03:39:54.359Z,55.74
2023-02-13T03:40:54.571Z,55.07
2023-02-13T03:41:54.375Z,54.98
2023-02-13T03:42:54.394Z,55.83
2023-02-13T03:43:54.390Z,56.59
2023-02-13T03:44:54.401Z,56.40
2023-02-13T03:45:54.615Z,56.49
2023-02-13T03:46:54.441Z,56.78
2023-02-13T03:47:54.420Z,57.16
2023-02-13T03:48:54.435Z,56.49
2023-02-13T03:49:54.444Z,56.21
2023-02-13T03:50:54.782Z,55.83
2023-02-13T03:51:54.455Z,55.26
2023-02-13T03:52:54.467Z,55.55
2023-02-13T03:53:54.473Z,55.26
2023-02-13T03:54:54.476Z,55.26
2023-02-13T03:55:54.483Z,55.26
2023-02-13T03:56:54.499Z,55.45
2023-02-13T03:57:54.506Z,55.36
2023-02-13T03:58:54.514Z,55.26
2023-02-13T03:59:54.512Z,54.88
2023-02-13T04:00:54.578Z,54.22
2023-02-13T04:01:54.536Z,54.13
2023-02-13T04:02:54.559Z,54.32
2023-02-13T04:03:54.543Z,55.36
2023-02-13T04:04:54.548Z,56.12
2023-02-13T04:05:54.571Z,56.12
2023-02-13T04:06:54.578Z,56.40
2023-02-13T04:07:54.574Z,56.21
2023-02-13T04:08:54.578Z,56.30
2023-02-13T04:09:54.592Z,56.40
2023-02-13T04:10:54.622Z,56.40
2023-02-13T04:11:54.603Z,56.12
2023-02-13T04:12:54.608Z,55.93
2023-02-13T04:13:54.620Z,55.83
2023-02-13T04:14:54.624Z,55.64
2023-02-13T04:15:54.635Z,56.40
2023-02-13T04:16:54.690Z,56.40
2023-02-13T04:17:54.649Z,56.40
2023-02-13T04:18:54.677Z,56.87
2023-02-13T04:19:54.666Z,56.59
2023-02-13T04:20:54.696Z,56.49
2023-02-13T04:21:54.687Z,56.49
2023-02-13T04:22:54.685Z,56.68
2023-02-13T04:23:54.694Z,56.78
2023-02-13T04:24:54.700Z,56.49
2023-02-13T04:25:54.712Z,56.87
2023-02-13T04:26:54.714Z,57.06
2023-02-13T04:27:54.726Z,56.97
2023-02-13T04:28:54.735Z,56.97
2023-02-13T04:29:54.744Z,56.97
2023-02-13T04:30:54.932Z,56.87
2023-02-13T04:31:54.861Z,56.40
2023-02-13T04:32:54.765Z,56.40
2023-02-13T04:33:54.771Z,56.21
2023-02-13T04:34:54.805Z,56.21
2023-02-13T04:35:54.793Z,56.40
2023-02-13T04:36:54.790Z,56.02
2023-02-13T04:37:54.804Z,55.55
2023-02-13T04:38:54.810Z,55.45
2023-02-13T04:39:54.830Z,56.49
2023-02-13T04:40:55.133Z,57.06
2023-02-13T04:41:54.847Z,56.97
2023-02-13T04:42:54.851Z,57.25
2023-02-13T04:43:54.851Z,56.78
2023-02-13T04:44:54.853Z,56.68
2023-02-13T04:45:54.945Z,56.97
2023-02-13T04:46:54.868Z,56.78
2023-02-13T04:47:54.892Z,57.16
2023-02-13T04:48:54.887Z,56.97
2023-02-13T04:49:54.908Z,57.25
2023-02-13T04:50:55.348Z,56.97
2023-02-13T04:51:54.910Z,57.06
2023-02-13T04:52:54.916Z,57.06
2023-02-13T04:53:54.923Z,57.44
2023-02-13T04:54:54.928Z,57.54
2023-02-13T04:55:54.940Z,57.06
2023-02-13T04:56:54.941Z,57.25
2023-02-13T04:57:54.959Z,57.25
2023-02-13T04:58:54.960Z,57.82
2023-02-13T04:59:54.969Z,57.44
2023-02-13T05:00:55.355Z,57.82
2023-02-13T05:01:54.994Z,58.17
2023-02-13T05:02:54.994Z,57.89
2023-02-13T05:03:55.002Z,57.82
2023-02-13T05:04:55.005Z,57.98
2023-02-13T05:05:55.010Z,57.92
2023-02-13T05:06:55.039Z,57.98
2023-02-13T05:07:55.054Z,57.51
2023-02-13T05:08:55.033Z,57.42
2023-02-13T05:09:55.042Z,57.98
2023-02-13T05:10:55.170Z,57.79
2023-02-13T05:11:55.059Z,57.89
2023-02-13T05:12:55.063Z,57.79
2023-02-13T05:13:55.072Z,57.70
2023-02-13T05:14:55.078Z,57.42
2023-02-13T05:15:55.130Z,57.32
2023-02-13T05:16:55.088Z,57.44
2023-02-13T05:17:55.104Z,57.35
2023-02-13T05:18:55.163Z,56.78
2023-02-13T05:19:55.119Z,56.87
2023-02-13T05:20:55.584Z,57.06
2023-02-13T05:21:55.140Z,56.78
2023-02-13T05:22:55.170Z,57.16
2023-02-13T05:23:55.143Z,56.68
2023-02-13T05:24:55.146Z,56.78
2023-02-13T05:25:55.162Z,56.30
2023-02-13T05:26:55.162Z,56.21
2023-02-13T05:27:55.175Z,55.26
2023-02-13T05:28:55.175Z,55.45
2023-02-13T05:29:55.187Z,56.21
2023-02-13T05:30:55.340Z,56.40
2023-02-13T05:31:55.321Z,56.49
2023-02-13T05:32:55.225Z,56.21
2023-02-13T05:33:55.216Z,56.59
2023-02-13T05:34:55.231Z,56.40
2023-02-13T05:35:55.231Z,56.68
2023-02-13T05:36:55.237Z,56.68
2023-02-13T05:37:55.250Z,56.59
2023-02-13T05:38:55.288Z,56.59
2023-02-13T05:39:55.266Z,56.30
2023-02-13T05:40:55.814Z,56.12
2023-02-13T05:41:55.278Z,56.09
2023-02-13T05:42:55.287Z,56.12
2023-02-13T05:43:55.301Z,56.30
2023-02-13T05:44:55.296Z,56.21
2023-02-13T05:45:55.323Z,56.12
2023-02-13T05:46:55.313Z,55.83
2023-02-13T05:47:55.333Z,55.26
2023-02-13T05:48:55.328Z,55.07
2023-02-13T05:49:55.343Z,55.07
2023-02-13T05:50:55.740Z,54.88
2023-02-13T05:51:55.353Z,54.88
2023-02-13T05:52:55.373Z,54.03
2023-02-13T05:53:55.373Z,53.75
2023-02-13T05:54:55.395Z,54.13
2023-02-13T05:55:55.381Z,54.60
2023-02-13T05:56:55.391Z,55.07
2023-02-13T05:57:55.397Z,54.98
2023-02-13T05:58:55.525Z,55.17
2023-02-13T05:59:55.407Z,55.26
2023-02-13T06:00:55.736Z,55.07
2023-02-13T06:01:55.442Z,54.50
2023-02-13T06:02:55.496Z,54.79
2023-02-13T06:03:57.745Z,54.69
2023-02-13T06:04:55.451Z,55.07
2023-02-13T06:05:55.449Z,54.79
2023-02-13T06:06:55.459Z,54.88
2023-02-13T06:07:55.468Z,55.07
2023-02-13T06:08:55.465Z,54.79
2023-02-13T06:09:55.479Z,55.26
2023-02-13T06:10:55.509Z,54.95
2023-02-13T06:11:55.509Z,54.79
2023-02-13T06:12:55.499Z,54.86
2023-02-13T06:13:55.520Z,54.03
2023-02-13T06:14:55.517Z,53.94
2023-02-13T06:15:55.607Z,53.94
2023-02-13T06:16:55.524Z,53.94
2023-02-13T06:17:55.539Z,54.41
2023-02-13T06:18:55.540Z,54.79
2023-02-13T06:19:55.561Z,55.36
2023-02-13T06:20:55.974Z,55.33
2023-02-13T06:21:55.577Z,55.24
2023-02-13T06:22:55.567Z,55.17
2023-02-13T06:23:55.578Z,54.86
2023-02-13T06:24:55.580Z,54.22
2023-02-13T06:25:55.595Z,54.47
2023-02-13T06:26:55.624Z,54.79
2023-02-13T06:27:55.613Z,54.69
2023-02-13T06:28:55.614Z,54.50
2023-02-13T06:29:55.621Z,54.69
2023-02-13T06:30:56.314Z,54.60
2023-02-13T06:31:55.698Z,54.03
2023-02-13T06:32:55.740Z,53.56
2023-02-13T06:33:55.652Z,53.75
2023-02-13T06:34:55.656Z,54.13
2023-02-13T06:35:55.670Z,54.13
2023-02-13T06:36:55.669Z,54.69
2023-02-13T06:37:55.682Z,54.50
2023-02-13T06:38:55.711Z,54.88
2023-02-13T06:39:55.800Z,54.98
2023-02-13T06:40:56.175Z,55.55
2023-02-13T06:41:55.711Z,55.26
2023-02-13T06:42:55.745Z,54.79
2023-02-13T06:43:55.725Z,55.26
2023-02-13T06:44:55.733Z,54.98
2023-02-13T06:45:55.763Z,55.17
2023-02-13T06:46:55.788Z,55.17
2023-02-13T06:47:55.753Z,55.17
2023-02-13T06:48:55.758Z,55.36
2023-02-13T06:49:55.771Z,55.17
2023-02-13T06:50:56.188Z,55.26
2023-02-13T06:51:55.786Z,55.52
2023-02-13T06:52:55.787Z,55.55
2023-02-13T06:53:55.798Z,55.17
2023-02-13T06:54:55.803Z,55.26
2023-02-13T06:55:55.817Z,55.36
2023-02-13T06:56:55.815Z,54.98
2023-02-13T06:57:55.837Z,54.88
2023-02-13T06:58:55.851Z,54.98
2023-02-13T06:59:55.839Z,54.69
2023-02-13T07:00:56.246Z,54.50
2023-02-13T07:01:55.855Z,54.22
2023-02-13T07:02:55.969Z,54.13
2023-02-13T07:03:55.875Z,54.79
2023-02-13T07:04:55.872Z,54.79
2023-02-13T07:05:55.882Z,54.79
2023-02-13T07:06:55.896Z,54.79
2023-02-13T07:07:55.896Z,54.03
2023-02-13T07:08:55.975Z,53.75
2023-02-13T07:09:55.916Z,53.75
2023-02-13T07:10:56.355Z,54.22
2023-02-13T07:11:55.929Z,54.32
2023-02-13T07:13:05.354Z,54.22
2023-02-13T07:13:55.945Z,54.69
2023-02-13T07:14:55.964Z,54.79
2023-02-13T07:15:55.966Z,54.79
2023-02-13T07:16:55.964Z,54.69
2023-02-13T07:17:55.973Z,54.69
2023-02-13T07:18:55.986Z,54.03
2023-02-13T07:19:56.005Z,53.75
2023-02-13T07:20:56.212Z,53.08
2023-02-13T07:21:55.995Z,52.89
2023-02-13T07:22:56.009Z,53.46
2023-02-13T07:23:56.011Z,54.13
2023-02-13T07:24:56.024Z,54.13
2023-02-13T07:25:56.029Z,53.94
2023-02-13T07:26:56.033Z,54.13
2023-02-13T07:27:56.047Z,54.22
2023-02-13T07:29:10.229Z,54.13
2023-02-13T07:29:56.060Z,54.13
2023-02-13T07:30:56.557Z,53.94
2023-02-13T07:31:56.094Z,54.03
2023-02-13T07:32:56.073Z,53.94
2023-02-13T07:33:56.103Z,53.65
2023-02-13T07:35:02.174Z,52.80
2023-02-13T07:35:56.116Z,52.23
2023-02-13T07:36:56.130Z,51.37
2023-02-13T07:37:56.122Z,51.18
2023-02-13T07:38:56.122Z,51.66
2023-02-13T07:39:56.133Z,52.04
2023-02-13T07:40:56.454Z,52.14
2023-02-13T07:41:56.152Z,52.70
2023-02-13T07:42:56.182Z,52.80
2023-02-13T07:43:56.165Z,52.23
2023-02-13T07:44:56.171Z,52.80
2023-02-13T07:45:56.547Z,52.42
2023-02-13T07:46:56.215Z,52.42
2023-02-13T07:47:56.200Z,52.14
2023-02-13T07:48:56.195Z,52.23
2023-02-13T07:49:56.208Z,52.23
2023-02-13T07:50:56.553Z,52.70
2023-02-13T07:51:56.220Z,52.33
2023-02-13T07:52:56.235Z,51.95
2023-02-13T07:53:57.358Z,52.42
2023-02-13T07:54:56.248Z,52.89
2023-02-13T07:55:56.593Z,53.08
2023-02-13T07:56:56.258Z,53.08
2023-02-13T07:57:56.266Z,52.98
2023-02-13T07:58:56.271Z,52.42
2023-02-13T07:59:56.285Z,52.04
2023-02-13T08:00:56.287Z,51.18
2023-02-13T08:01:56.356Z,51.09
2023-02-13T08:02:56.334Z,52.04
2023-02-13T08:03:56.370Z,52.61
2023-02-13T08:04:56.317Z,52.70
2023-02-13T08:05:56.803Z,52.42
2023-02-13T08:06:56.332Z,52.42
2023-02-13T08:07:56.348Z,52.42
2023-02-13T08:08:56.347Z,52.70
2023-02-13T08:09:56.357Z,52.23
2023-02-13T08:10:56.374Z,51.57
2023-02-13T08:11:56.374Z,51.18
2023-02-13T08:12:56.370Z,50.90
2023-02-13T08:13:56.493Z,51.66
2023-02-13T08:14:56.386Z,52.04
2023-02-13T08:15:56.743Z,51.85
2023-02-13T08:16:56.402Z,52.70
2023-02-13T08:17:56.409Z,52.98
2023-02-13T08:18:56.450Z,52.51
2023-02-13T08:19:56.429Z,53.49
2023-02-13T08:20:56.436Z,55.29
2023-02-13T08:21:56.439Z,55.67
2023-02-13T08:22:56.449Z,53.52
2023-02-13T08:23:56.497Z,52.59
2023-02-13T08:24:56.472Z,51.93
2023-02-13T08:25:56.474Z,50.51
2023-02-13T08:26:56.481Z,48.99
2023-02-13T08:27:56.482Z,48.70
2023-02-13T08:28:56.496Z,48.35
2023-02-13T08:29:56.540Z,48.16
2023-02-13T08:30:56.575Z,47.39
2023-02-13T08:31:56.569Z,47.20
2023-02-13T08:32:56.527Z,47.02
2023-02-13T08:33:56.528Z,47.58
2023-02-13T08:34:56.564Z,48.06
2023-02-13T08:35:57.044Z,46.73
2023-02-13T08:36:56.595Z,46.92
2023-02-13T08:37:56.569Z,46.92
2023-02-13T08:38:56.575Z,47.42
2023-02-13T08:39:56.577Z,46.83
2023-02-13T08:40:56.923Z,47.13
2023-02-13T08:41:56.589Z,46.94
2023-02-13T08:42:57.765Z,46.09
2023-02-13T08:43:56.606Z,46.28
2023-02-13T08:44:58.158Z,46.75
2023-02-13T08:45:57.075Z,47.04
2023-02-13T08:46:56.636Z,45.61
2023-02-13T08:47:56.639Z,45.42
2023-02-13T08:48:56.650Z,46.00
2023-02-13T08:49:56.655Z,47.13
2023-02-13T08:50:56.694Z,46.09
2023-02-13T08:51:56.676Z,44.47
2023-02-13T08:52:56.685Z,44.85
2023-02-13T08:53:56.689Z,44.57
2023-02-13T08:54:56.699Z,44.47
2023-02-13T08:55:57.331Z,46.56
2023-02-13T08:56:57.875Z,46.28
2023-02-13T08:57:56.721Z,46.68
2023-02-13T08:58:56.742Z,46.19
2023-02-13T08:59:56.756Z,46.19
2023-02-13T09:00:56.766Z,46.94
2023-02-13T09:01:56.760Z,45.80
2023-02-13T09:02:56.870Z,45.61
2023-02-13T09:03:56.781Z,46.37
2023-02-13T09:04:56.792Z,46.66
2023-02-13T09:05:57.080Z,45.42
2023-02-13T09:06:56.848Z,45.33
2023-02-13T09:07:56.814Z,44.67
2023-02-13T09:08:56.857Z,44.76
2023-02-13T09:09:56.867Z,45.52
2023-02-13T09:10:56.855Z,45.90
2023-02-13T09:11:56.848Z,44.85
2023-02-13T09:12:56.854Z,45.52
2023-02-13T09:13:56.864Z,46.09
2023-02-13T09:14:56.873Z,45.61
2023-02-13T09:15:57.124Z,48.11
2023-02-13T09:16:56.992Z,47.44
2023-02-13T09:17:56.908Z,46.59
2023-02-13T09:18:56.964Z,46.97
2023-02-13T09:19:56.914Z,46.78
2023-02-13T09:20:56.936Z,47.28
2023-02-13T09:21:56.949Z,46.80
2023-02-13T09:22:57.006Z,45.75
2023-02-13T09:23:56.960Z,46.80
2023-02-13T09:24:56.961Z,46.51
2023-02-13T09:25:57.342Z,45.56
2023-02-13T09:26:56.994Z,46.14
2023-02-13T09:27:56.993Z,46.33
2023-02-13T09:28:57.044Z,45.95
2023-02-13T09:29:57.008Z,45.37
2023-02-13T09:30:57.187Z,46.14
2023-02-13T09:31:57.222Z,45.40
2023-02-13T09:32:57.042Z,44.82
2023-02-13T09:33:57.059Z,43.57
2023-02-13T09:34:57.056Z,43.95
2023-02-13T09:35:57.416Z,44.04
2023-02-13T09:36:57.123Z,44.04
2023-02-13T09:37:57.081Z,44.80
2023-02-13T09:38:57.119Z,44.33
2023-02-13T09:39:57.100Z,44.33
2023-02-13T09:40:57.117Z,44.64
2023-02-13T09:41:57.152Z,44.82
2023-02-13T09:42:57.146Z,44.85
2023-02-13T09:43:57.139Z,43.99
2023-02-13T09:44:57.155Z,43.11
2023-02-13T09:45:57.616Z,42.64
2023-02-13T09:46:57.180Z,42.35
2023-02-13T09:47:57.179Z,43.21
2023-02-13T09:48:57.188Z,42.83
2023-02-13T09:49:57.200Z,43.11
2023-02-13T09:50:57.239Z,43.21
2023-02-13T09:51:57.253Z,42.54
2023-02-13T09:52:57.233Z,43.30
2023-02-13T09:53:57.239Z,42.54
2023-02-13T09:54:57.276Z,42.07
2023-02-13T09:55:57.663Z,42.64
2023-02-13T09:56:57.269Z,43.87
2023-02-13T09:57:57.276Z,43.30
2023-02-13T09:58:57.298Z,43.21
2023-02-13T09:59:57.309Z,43.09
2023-02-13T10:00:57.311Z,44.26
2023-02-13T10:01:57.434Z,43.40
2023-02-13T10:02:57.352Z,43.21
2023-02-13T10:03:57.365Z,43.68
2023-02-13T10:04:57.427Z,44.18
2023-02-13T10:05:57.776Z,45.51
2023-02-13T10:06:57.372Z,44.27
2023-02-13T10:07:57.378Z,43.51
2023-02-13T10:08:57.395Z,42.76
2023-02-13T10:09:57.406Z,43.13
2023-02-13T10:10:57.438Z,43.80
2023-02-13T10:11:57.428Z,42.18
2023-02-13T10:12:57.434Z,43.13
2023-02-13T10:13:57.441Z,42.85
2023-02-13T10:14:57.455Z,43.44
2023-02-13T10:15:57.850Z,43.63
2023-02-13T10:16:57.478Z,43.35
2023-02-13T10:17:57.484Z,44.23
2023-02-13T10:18:57.506Z,42.11
2023-02-13T10:19:57.506Z,42.77
2023-02-13T10:20:57.526Z,43.18
2023-02-13T10:21:57.543Z,43.27
2023-02-13T10:22:57.562Z,43.56
2023-02-13T10:23:57.557Z,41.25
2023-02-13T10:24:57.593Z,42.13
2023-02-13T10:25:58.043Z,41.72
2023-02-13T10:26:57.624Z,42.32
2023-02-13T10:27:57.600Z,42.41
2023-02-13T10:28:57.611Z,42.22
2023-02-13T10:29:57.630Z,41.36
2023-02-13T10:30:57.698Z,42.51
2023-02-13T10:31:57.829Z,42.51
2023-02-13T10:32:57.662Z,41.36
2023-02-13T10:33:57.666Z,41.10
2023-02-13T10:34:57.689Z,40.51
2023-02-13T10:35:58.023Z,41.10
2023-02-13T10:36:57.707Z,39.82
2023-02-13T10:37:57.712Z,40.58
2023-02-13T10:38:57.734Z,42.03
2023-02-13T10:39:57.762Z,41.46
2023-02-13T10:40:57.748Z,41.72
2023-02-13T10:41:57.801Z,40.99
2023-02-13T10:42:57.804Z,42.05
2023-02-13T10:43:57.787Z,41.08
2023-02-13T10:44:57.820Z,40.99
2023-02-13T10:45:58.318Z,40.60
2023-02-13T10:46:57.824Z,40.41
2023-02-13T10:47:57.832Z,40.89
2023-02-13T10:48:57.846Z,40.77
2023-02-13T10:49:57.854Z,40.68
2023-02-13T10:50:57.872Z,40.89
2023-02-13T10:51:57.881Z,40.39
2023-02-13T10:52:57.895Z,40.48
2023-02-13T10:53:57.905Z,39.92
2023-02-13T10:54:57.931Z,41.46
2023-02-13T10:55:58.290Z,42.53
2023-02-13T10:56:57.985Z,41.00
2023-02-13T10:57:57.954Z,39.94
2023-02-13T10:58:58.089Z,40.89
2023-02-13T10:59:57.975Z,42.15
2023-02-13T11:00:58.000Z,40.63
2023-02-13T11:01:58.110Z,40.70
2023-02-13T11:02:58.017Z,40.89
2023-02-13T11:03:58.088Z,40.41
2023-02-13T11:04:58.037Z,40.70
2023-02-13T11:05:58.408Z,40.99
2023-02-13T11:06:58.063Z,42.03
2023-02-13T11:07:58.077Z,41.48
2023-02-13T11:08:58.084Z,42.24
2023-02-13T11:09:58.095Z,40.63
2023-02-13T11:10:58.114Z,40.91
2023-02-13T11:11:58.116Z,40.44
2023-02-13T11:12:58.135Z,40.12
2023-02-13T11:13:58.140Z,40.91
2023-02-13T11:14:58.194Z,42.05
2023-02-13T11:15:58.624Z,40.63
2023-02-13T11:16:58.181Z,40.60
2023-02-13T11:17:58.190Z,41.27
2023-02-13T11:18:58.208Z,41.86
2023-02-13T11:19:58.216Z,41.77
2023-02-13T11:20:58.231Z,41.67
2023-02-13T11:21:58.239Z,41.88
2023-02-13T11:22:58.264Z,40.45
2023-02-13T11:23:58.265Z,41.12
2023-02-13T11:24:58.284Z,41.12
2023-02-13T11:25:58.622Z,40.83
2023-02-13T11:26:58.313Z,40.26
2023-02-13T11:27:58.319Z,39.58
2023-02-13T11:28:58.338Z,41.12
2023-02-13T11:29:58.349Z,41.22
2023-02-13T11:30:58.464Z,39.59
2023-02-13T11:31:58.492Z,39.22
2023-02-13T11:32:58.384Z,40.36
2023-02-13T11:33:59.192Z,39.58
2023-02-13T11:34:58.421Z,40.12
2023-02-13T11:35:58.841Z,40.89
2023-02-13T11:36:58.435Z,41.36
2023-02-13T11:37:58.446Z,41.94
2023-02-13T11:38:58.465Z,43.29
2023-02-13T11:39:58.472Z,42.53
2023-02-13T11:40:58.488Z,42.05
2023-02-13T11:41:58.496Z,42.46
2023-02-13T11:42:58.513Z,42.38
2023-02-13T11:43:58.532Z,40.36
2023-02-13T11:44:58.541Z,40.83
2023-02-13T11:45:58.883Z,41.31
2023-02-13T11:46:58.779Z,41.12
2023-02-13T11:47:58.576Z,41.69
2023-02-13T11:48:58.590Z,41.41
2023-02-13T11:49:58.608Z,40.93
2023-02-13T11:50:58.627Z,41.03
2023-02-13T11:51:58.632Z,40.15
2023-02-13T11:52:58.646Z,40.81
2023-02-13T11:53:58.655Z,39.84
2023-02-13T11:54:58.670Z,41.39
2023-02-13T11:55:59.018Z,41.36
2023-02-13T11:57:04.384Z,42.63
2023-02-13T11:57:58.709Z,42.05
2023-02-13T11:58:58.792Z,41.96
2023-02-13T11:59:58.766Z,42.05
2023-02-13T12:00:58.756Z,42.27
2023-02-13T12:01:58.763Z,42.08
2023-02-13T12:02:59.059Z,42.08
2023-02-13T12:03:58.821Z,41.50
2023-02-13T12:04:58.806Z,41.10
2023-02-13T12:05:59.380Z,41.58
2023-02-13T12:06:58.836Z,41.75
2023-02-13T12:07:58.840Z,43.20
2023-02-13T12:08:58.859Z,42.34
2023-02-13T12:09:58.875Z,42.72
2023-02-13T12:10:58.886Z,42.82
2023-02-13T12:11:58.896Z,43.22
2023-02-13T12:12:58.917Z,42.27
2023-02-13T12:13:58.924Z,42.55
2023-02-13T12:14:58.939Z,43.24
2023-02-13T12:15:59.441Z,42.48
2023-02-13T12:16:58.963Z,42.38
2023-02-13T12:17:58.977Z,41.14
2023-02-13T12:18:59.027Z,39.98
2023-02-13T12:19:59.006Z,40.93
2023-02-13T12:20:59.422Z,41.81
2023-02-13T12:21:59.029Z,42.19
2023-02-13T12:22:59.060Z,40.86
2023-02-13T12:23:59.073Z,39.42
2023-02-13T12:24:59.104Z,38.58
2023-02-13T12:25:59.640Z,36.85
2023-02-13T12:26:59.113Z,38.95
2023-02-13T12:27:59.114Z,40.57
2023-02-13T12:28:59.182Z,41.52
2023-02-13T12:29:59.142Z,42.40
2023-02-13T12:30:59.521Z,41.50
2023-02-13T12:31:59.212Z,42.00
2023-02-13T12:32:59.184Z,41.33
2023-02-13T12:33:59.193Z,40.01
2023-02-13T12:34:59.228Z,38.66
2023-02-13T12:35:59.223Z,39.61
2023-02-13T12:36:59.243Z,41.62
2023-02-13T12:37:59.249Z,40.00
2023-02-13T12:38:59.267Z,37.38
2023-02-13T12:39:59.282Z,40.55
2023-02-13T12:40:59.715Z,42.00
2023-02-13T12:41:59.309Z,41.05
2023-02-13T12:42:59.319Z,40.09
2023-02-13T12:43:59.329Z,41.62
2023-02-13T12:44:59.341Z,41.52
2023-02-13T12:45:59.420Z,41.83
2023-02-13T12:46:59.366Z,42.14
2023-02-13T12:47:59.390Z,37.46
2023-02-13T12:48:59.398Z,37.23
2023-02-13T12:49:59.420Z,39.32
2023-02-13T12:50:59.779Z,39.52
2023-02-13T12:51:59.455Z,39.29
2023-02-13T12:52:59.448Z,41.41